createdAt,value
2019-02-05T00:01:28.588Z,2.31
2019-02-05T00:03:58.820Z,2.29
2019-02-05T00:06:28.908Z,2.35
2019-02-05T00:08:58.132Z,2.36
2019-02-05T00:11:27.669Z,2.33
2019-02-05T00:13:57.209Z,2.34
2019-02-05T00:16:26.524Z,2.34
2019-02-05T00:18:57.024Z,2.37
2019-02-05T00:21:26.683Z,2.38
2019-02-05T00:23:56.800Z,2.40
2019-02-05T00:26:27.857Z,2.45
2019-02-05T00:28:57.198Z,2.46
2019-02-05T00:31:26.419Z,2.47
2019-02-05T00:33:55.881Z,2.41
2019-02-05T00:36:25.450Z,2.44
2019-02-05T00:38:56.292Z,2.43
2019-02-05T00:41:25.509Z,2.48
2019-02-05T00:43:56.656Z,2.44
2019-02-05T00:46:26.205Z,2.43
2019-02-05T00:48:55.385Z,2.47
2019-02-05T00:51:24.944Z,2.46
2019-02-05T00:53:54.240Z,2.49
2019-02-05T00:56:23.773Z,2.51
2019-02-05T00:58:53.452Z,2.53
2019-02-05T01:01:22.646Z,2.57
2019-02-05T01:03:52.300Z,2.53
2019-02-05T01:06:21.804Z,2.57
2019-02-05T01:08:51.085Z,2.57
2019-02-05T01:11:20.529Z,2.56
2019-02-05T01:13:49.710Z,2.57
2019-02-05T01:16:19.269Z,2.64
2019-02-05T01:18:50.361Z,2.62
2019-02-05T01:21:19.936Z,2.61
2019-02-05T01:23:49.131Z,2.63
2019-02-05T01:26:28.928Z,2.65
2019-02-05T01:28:50.434Z,2.70
2019-02-05T01:31:19.589Z,2.75
2019-02-05T01:33:48.840Z,2.68
2019-02-05T01:36:19.862Z,2.76
2019-02-05T01:38:49.191Z,2.76
2019-02-05T01:41:18.742Z,2.78
2019-02-05T01:43:48.247Z,2.76
2019-02-05T01:46:17.524Z,2.78
2019-02-05T01:48:47.047Z,2.78
2019-02-05T01:51:16.279Z,2.78
2019-02-05T01:53:45.608Z,2.81
2019-02-05T01:56:14.851Z,2.79
2019-02-05T01:58:44.332Z,2.78
2019-02-05T02:01:13.944Z,2.79
2019-02-05T02:03:43.147Z,2.87
2019-02-05T02:06:12.382Z,2.81
2019-02-05T02:08:41.892Z,2.74
2019-02-05T02:11:11.596Z,2.79
2019-02-05T02:13:41.562Z,2.80
2019-02-05T02:16:11.110Z,2.81
2019-02-05T02:18:40.537Z,2.81
2019-02-05T02:21:09.750Z,2.82
2019-02-05T02:23:39.109Z,2.84
2019-02-05T02:26:08.329Z,2.78
2019-02-05T02:28:37.832Z,2.78
2019-02-05T02:31:07.172Z,2.83
2019-02-05T02:33:36.408Z,2.81
2019-02-05T02:36:07.201Z,2.83
2019-02-05T02:38:36.673Z,2.81
2019-02-05T02:41:06.289Z,2.83
2019-02-05T02:43:35.946Z,2.81
2019-02-05T02:46:05.467Z,2.84
2019-02-05T02:48:35.061Z,2.87
2019-02-05T02:51:06.144Z,2.84
2019-02-05T02:53:35.324Z,2.89
2019-02-05T02:56:04.623Z,2.82
2019-02-05T02:58:34.577Z,2.83
2019-02-05T03:01:03.796Z,2.88
2019-02-05T03:03:32.979Z,2.83
2019-02-05T03:06:02.181Z,2.90
2019-02-05T03:08:31.371Z,2.89
2019-02-05T03:11:02.302Z,2.84
2019-02-05T03:13:31.848Z,2.84
2019-02-05T03:16:02.544Z,2.86
2019-02-05T03:18:32.089Z,2.81
2019-02-05T03:21:01.354Z,2.81
2019-02-05T03:23:30.519Z,2.95
2019-02-05T03:26:00.097Z,2.87
2019-02-05T03:28:29.277Z,2.86
2019-02-05T03:30:58.482Z,2.88
2019-02-05T03:33:28.034Z,2.83
2019-02-05T03:35:57.201Z,2.83
2019-02-05T03:38:26.797Z,2.82
2019-02-05T03:41:03.603Z,2.90
2019-02-05T03:43:34.419Z,2.85
2019-02-05T03:46:15.802Z,2.85
2019-02-05T03:48:47.880Z,2.90
2019-02-05T03:52:01.678Z,2.87
2019-02-05T03:54:51.866Z,2.88
2019-02-05T03:58:03.915Z,2.88
2019-02-05T04:01:29.502Z,2.84
2019-02-05T04:04:38.623Z,2.91
2019-02-05T04:08:00.032Z,2.95
2019-02-05T04:11:34.624Z,2.92
2019-02-05T04:14:38.994Z,2.85
2019-02-05T04:17:46.347Z,2.92
2019-02-05T04:20:51.440Z,2.92
2019-02-05T04:23:58.150Z,2.93
2019-02-05T04:26:49.744Z,2.93
2019-02-05T04:29:54.468Z,2.89
2019-02-05T04:32:58.175Z,3.01
2019-02-05T04:36:11.997Z,3.06
2019-02-05T04:39:09.745Z,2.96
2019-02-05T04:42:16.097Z,2.95
2019-02-05T04:45:36.487Z,2.95
2019-02-05T04:48:45.458Z,2.96
2019-02-05T04:51:58.759Z,2.98
2019-02-05T04:55:18.143Z,2.95
2019-02-05T04:58:09.270Z,2.93
2019-02-05T05:01:00.769Z,2.95
2019-02-05T05:03:44.586Z,3.01
2019-02-05T05:06:36.539Z,3.02
2019-02-05T05:09:40.123Z,2.98
2019-02-05T05:12:11.064Z,2.97
2019-02-05T05:14:40.696Z,2.98
2019-02-05T05:17:10.053Z,3.00
2019-02-05T05:19:39.653Z,3.01
2019-02-05T05:22:08.854Z,3.00
2019-02-05T05:24:39.003Z,3.03
2019-02-05T05:27:08.803Z,3.03
2019-02-05T05:29:37.982Z,3.02
2019-02-05T05:32:07.286Z,3.00
2019-02-05T05:34:36.521Z,3.11
2019-02-05T05:37:04.284Z,3.13
2019-02-05T05:39:33.527Z,3.19
2019-02-05T05:42:02.990Z,3.16
2019-02-05T05:44:32.297Z,3.15
2019-02-05T05:47:02.207Z,3.09
2019-02-05T05:49:31.398Z,3.12
2019-02-05T05:52:00.634Z,3.16
2019-02-05T05:54:29.876Z,3.13
2019-02-05T05:56:59.218Z,3.12
2019-02-05T05:59:28.607Z,3.16
2019-02-05T06:01:57.792Z,3.14
2019-02-05T06:04:27.421Z,3.11
2019-02-05T06:06:56.764Z,3.13
2019-02-05T06:09:25.983Z,3.14
2019-02-05T06:11:55.554Z,3.21
2019-02-05T06:14:26.158Z,3.19
2019-02-05T06:16:55.678Z,3.14
2019-02-05T06:19:25.244Z,3.24
2019-02-05T06:21:54.496Z,3.16
2019-02-05T06:24:23.700Z,3.17
2019-02-05T06:26:55.100Z,3.17
2019-02-05T06:29:24.757Z,3.14
2019-02-05T06:31:54.215Z,3.18
2019-02-05T06:34:23.716Z,3.14
2019-02-05T06:36:52.956Z,3.15
2019-02-05T06:39:23.675Z,3.09
2019-02-05T06:41:53.431Z,3.11
2019-02-05T06:44:22.637Z,3.08
2019-02-05T06:46:52.113Z,3.12
2019-02-05T06:49:21.433Z,3.17
2019-02-05T06:51:50.656Z,3.17
2019-02-05T06:54:21.741Z,3.13
2019-02-05T06:56:50.903Z,3.12
2019-02-05T06:59:21.239Z,3.17
2019-02-05T07:01:50.410Z,3.11
2019-02-05T07:04:19.769Z,3.15
2019-02-05T07:06:50.344Z,3.10
2019-02-05T07:09:20.860Z,3.20
2019-02-05T07:11:50.157Z,3.11
2019-02-05T07:14:19.847Z,3.12
2019-02-05T07:16:49.090Z,3.14
2019-02-05T07:19:18.357Z,3.23
2019-02-05T07:21:48.246Z,3.14
2019-02-05T07:24:17.791Z,3.27
2019-02-05T07:26:47.174Z,3.22
2019-02-05T07:29:16.884Z,3.17
2019-02-05T07:31:48.346Z,3.18
2019-02-05T07:34:21.289Z,3.20
2019-02-05T07:36:50.866Z,3.18
2019-02-05T07:39:20.119Z,3.11
2019-02-05T07:41:49.559Z,3.19
2019-02-05T07:44:19.585Z,3.18
2019-02-05T07:46:48.905Z,3.17
2019-02-05T07:49:19.823Z,3.23
2019-02-05T07:51:49.090Z,3.16
2019-02-05T07:54:19.765Z,3.14
2019-02-05T07:56:49.023Z,3.15
2019-02-05T07:59:18.328Z,3.17
2019-02-05T08:01:48.293Z,3.15
2019-02-05T08:04:17.960Z,3.20
2019-02-05T08:06:47.898Z,3.25
2019-02-05T08:09:17.590Z,3.29
2019-02-05T08:11:48.013Z,3.31
2019-02-05T08:14:17.411Z,3.27
2019-02-05T08:16:49.684Z,3.29
2019-02-05T08:19:19.316Z,3.27
2019-02-05T08:21:48.584Z,3.35
2019-02-05T08:24:18.329Z,3.40
2019-02-05T08:26:48.432Z,3.42
2019-02-05T08:29:21.785Z,3.37
2019-02-05T08:31:48.985Z,3.38
2019-02-05T08:34:18.690Z,3.39
2019-02-05T08:36:47.952Z,3.47
2019-02-05T08:39:17.942Z,3.59
2019-02-05T08:41:47.429Z,3.54
2019-02-05T08:44:17.127Z,3.62
2019-02-05T08:46:46.773Z,3.50
2019-02-05T08:49:16.021Z,3.52
2019-02-05T08:51:45.257Z,3.54
2019-02-05T08:54:14.640Z,3.57
2019-02-05T08:56:44.271Z,3.57
2019-02-05T08:59:14.570Z,3.61
2019-02-05T09:01:45.719Z,3.72
2019-02-05T09:04:15.357Z,3.77
2019-02-05T09:06:45.037Z,3.84
2019-02-05T09:09:14.317Z,3.77
2019-02-05T09:11:43.669Z,3.73
2019-02-05T09:14:13.250Z,3.80
2019-02-05T09:16:43.289Z,3.79
2019-02-05T09:19:14.416Z,3.85
2019-02-05T09:21:44.045Z,3.79
2019-02-05T09:24:13.659Z,3.75
2019-02-05T09:26:44.612Z,3.82
2019-02-05T09:29:14.082Z,3.81
2019-02-05T09:31:45.103Z,3.79
2019-02-05T09:34:14.417Z,3.81
2019-02-05T09:36:43.680Z,3.86
2019-02-05T09:39:13.024Z,3.81
2019-02-05T09:41:42.665Z,3.92
2019-02-05T09:44:11.906Z,3.93
2019-02-05T09:46:41.564Z,3.98
2019-02-05T09:49:11.174Z,3.85
2019-02-05T09:51:40.486Z,3.93
2019-02-05T09:54:12.104Z,3.99
2019-02-05T09:56:41.406Z,3.96
2019-02-05T09:59:12.817Z,4.00
2019-02-05T10:01:42.220Z,4.02
2019-02-05T10:04:11.900Z,4.00
2019-02-05T10:06:41.173Z,4.11
2019-02-05T10:09:10.440Z,4.13
2019-02-05T10:11:39.778Z,4.15
2019-02-05T10:14:09.076Z,4.26
2019-02-05T10:16:39.743Z,4.46
2019-02-05T10:19:10.303Z,4.41
2019-02-05T10:21:39.885Z,4.32
2019-02-05T10:24:09.182Z,4.44
2019-02-05T10:26:38.965Z,4.42
2019-02-05T10:29:08.226Z,4.34
2019-02-05T10:31:37.525Z,4.39
2019-02-05T10:34:06.783Z,4.30
2019-02-05T10:36:36.419Z,4.36
2019-02-05T10:39:08.765Z,4.54
2019-02-05T10:41:38.046Z,4.56
2019-02-05T10:44:07.492Z,4.51
2019-02-05T10:46:36.859Z,4.61
2019-02-05T10:49:06.556Z,4.72
2019-02-05T10:51:37.614Z,4.64
2019-02-05T10:54:07.527Z,4.63
2019-02-05T10:56:37.517Z,4.81
2019-02-05T10:59:06.794Z,4.81
2019-02-05T11:01:37.176Z,4.92
2019-02-05T11:04:06.410Z,4.87
2019-02-05T11:06:36.119Z,4.96
2019-02-05T11:09:09.194Z,4.98
2019-02-05T11:11:38.456Z,4.96
2019-02-05T11:14:09.332Z,4.93
2019-02-05T11:16:38.794Z,5.22
2019-02-05T11:19:07.999Z,5.13
2019-02-05T11:21:37.727Z,5.04
2019-02-05T11:24:07.797Z,5.08
2019-02-05T11:26:37.045Z,5.09
2019-02-05T11:29:06.348Z,5.09
2019-02-05T11:31:38.307Z,5.12
2019-02-05T11:34:07.652Z,5.07
2019-02-05T11:36:36.916Z,5.17
2019-02-05T11:39:13.570Z,5.07
2019-02-05T11:41:42.832Z,5.17
2019-02-05T11:44:12.180Z,5.27
2019-02-05T11:46:41.908Z,5.12
2019-02-05T11:49:12.169Z,5.13
2019-02-05T11:51:42.286Z,5.08
2019-02-05T11:54:12.029Z,5.09
2019-02-05T11:56:41.252Z,5.06
2019-02-05T11:59:10.560Z,5.04
2019-02-05T12:01:41.431Z,5.16
2019-02-05T12:04:10.694Z,5.03
2019-02-05T12:06:39.996Z,5.12
2019-02-05T12:09:19.223Z,5.12
2019-02-05T12:11:48.875Z,5.06
2019-02-05T12:14:18.121Z,5.10
2019-02-05T12:16:47.760Z,5.11
2019-02-05T12:19:17.067Z,5.07
2019-02-05T12:21:46.700Z,5.10
2019-02-05T12:24:16.371Z,5.10
2019-02-05T12:26:46.003Z,5.30
2019-02-05T12:29:15.243Z,5.27
2019-02-05T12:31:44.486Z,5.30
2019-02-05T12:34:13.883Z,5.26
2019-02-05T12:36:43.598Z,5.16
2019-02-05T12:39:18.660Z,5.24
2019-02-05T12:41:47.923Z,5.27
2019-02-05T12:44:17.348Z,5.24
2019-02-05T12:46:47.051Z,5.15
2019-02-05T12:49:16.760Z,5.16
2019-02-05T12:51:46.397Z,5.26
2019-02-05T12:54:16.086Z,5.33
2019-02-05T12:56:45.794Z,5.38
2019-02-05T12:59:15.177Z,5.31
2019-02-05T13:01:44.812Z,5.37
2019-02-05T13:04:14.107Z,5.25
2019-02-05T13:06:43.418Z,5.31
2019-02-05T13:09:13.118Z,5.21
2019-02-05T13:11:42.525Z,5.44
2019-02-05T13:14:11.822Z,5.46
2019-02-05T13:16:42.221Z,5.54
2019-02-05T13:19:11.466Z,5.67
2019-02-05T13:21:40.856Z,5.60
2019-02-05T13:24:10.757Z,5.70
2019-02-05T13:26:40.008Z,5.82
2019-02-05T13:29:09.276Z,5.66
2019-02-05T13:31:38.547Z,5.47
2019-02-05T13:34:08.407Z,5.47
2019-02-05T13:36:39.416Z,5.64
2019-02-05T13:39:12.834Z,5.71
2019-02-05T13:41:42.128Z,5.65
2019-02-05T13:44:13.116Z,5.42
2019-02-05T13:46:42.369Z,5.35
2019-02-05T13:49:11.718Z,5.32
2019-02-05T13:51:41.207Z,5.43
2019-02-05T13:54:10.477Z,5.26
2019-02-05T13:56:39.726Z,5.42
2019-02-05T13:59:09.021Z,5.51
2019-02-05T14:01:38.279Z,5.68
2019-02-05T14:04:08.015Z,5.78
2019-02-05T14:06:37.498Z,5.84
2019-02-05T14:09:12.621Z,5.88
2019-02-05T14:11:43.689Z,5.82
2019-02-05T14:14:12.929Z,5.90
2019-02-05T14:16:42.639Z,6.02
2019-02-05T14:19:12.149Z,5.98
2019-02-05T14:21:42.142Z,5.77
2019-02-05T14:24:11.396Z,5.86
2019-02-05T14:26:41.085Z,5.89
2019-02-05T14:29:10.370Z,5.91
2019-02-05T14:31:39.735Z,5.83
2019-02-05T14:34:10.569Z,5.78
2019-02-05T14:36:39.800Z,5.75
2019-02-05T14:39:11.076Z,5.72
2019-02-05T14:41:44.990Z,5.71
2019-02-05T14:44:14.243Z,5.64
2019-02-05T14:46:43.730Z,5.62
2019-02-05T14:49:13.021Z,5.57
2019-02-05T14:51:42.663Z,5.52
2019-02-05T14:54:11.925Z,5.59
2019-02-05T14:56:41.203Z,5.53
2019-02-05T14:59:12.625Z,5.59
2019-02-05T15:01:43.448Z,5.59
2019-02-05T15:04:13.162Z,5.52
2019-02-05T15:06:42.847Z,5.53
2019-02-05T15:09:12.317Z,5.53
2019-02-05T15:11:41.587Z,5.53
2019-02-05T15:14:10.969Z,5.58
2019-02-05T15:16:44.761Z,5.43
2019-02-05T15:19:13.979Z,5.47
2019-02-05T15:21:43.597Z,5.32
2019-02-05T15:24:12.978Z,5.23
2019-02-05T15:26:44.345Z,5.20
2019-02-05T15:29:14.721Z,5.20
2019-02-05T15:31:54.350Z,5.19
2019-02-05T15:34:22.846Z,5.22
2019-02-05T15:36:53.435Z,5.08
2019-02-05T15:39:22.645Z,4.98
2019-02-05T15:41:52.062Z,4.94
2019-02-05T15:44:21.418Z,4.87
2019-02-05T15:46:50.944Z,4.83
2019-02-05T15:49:20.534Z,4.96
2019-02-05T15:51:49.799Z,4.93
2019-02-05T15:54:19.132Z,4.85
2019-02-05T15:56:48.434Z,4.83
2019-02-05T15:59:17.738Z,4.80
2019-02-05T16:01:47.020Z,4.74
2019-02-05T16:04:17.252Z,4.78
2019-02-05T16:06:46.687Z,4.81
2019-02-05T16:09:15.947Z,4.78
2019-02-05T16:11:45.271Z,4.78
2019-02-05T16:14:14.650Z,4.73
2019-02-05T16:16:44.514Z,4.65
2019-02-05T16:19:14.153Z,4.69
2019-02-05T16:21:43.471Z,4.66
2019-02-05T16:24:14.338Z,4.59
2019-02-05T16:26:44.455Z,4.58
2019-02-05T16:29:15.188Z,4.62
2019-02-05T16:31:44.570Z,4.57
2019-02-05T16:34:14.170Z,4.52
2019-02-05T16:36:43.412Z,4.45
2019-02-05T16:39:13.140Z,4.46
2019-02-05T16:41:43.677Z,4.43
2019-02-05T16:44:13.363Z,4.48
2019-02-05T16:46:44.497Z,4.47
2019-02-05T16:49:14.963Z,4.44
2019-02-05T16:51:44.557Z,4.34
2019-02-05T16:54:13.858Z,4.33
2019-02-05T16:56:44.886Z,4.33
2019-02-05T16:59:14.119Z,4.39
2019-02-05T17:01:43.899Z,4.35
2019-02-05T17:04:15.034Z,4.27
2019-02-05T17:06:44.677Z,4.35
2019-02-05T17:09:16.837Z,4.33
2019-02-05T17:11:46.459Z,4.28
2019-02-05T17:14:16.161Z,4.23
2019-02-05T17:16:46.488Z,4.26
2019-02-05T17:19:15.777Z,4.32
2019-02-05T17:21:47.931Z,4.32
2019-02-05T17:24:18.183Z,4.29
2019-02-05T17:26:47.967Z,4.27
2019-02-05T17:29:18.744Z,4.27
2019-02-05T17:31:49.842Z,4.38
2019-02-05T17:34:19.260Z,4.30
2019-02-05T17:36:48.960Z,4.28
2019-02-05T17:39:18.255Z,4.25
2019-02-05T17:41:48.221Z,4.22
2019-02-05T17:44:17.812Z,4.18
2019-02-05T17:46:47.602Z,4.13
2019-02-05T17:49:17.000Z,4.22
2019-02-05T17:51:46.815Z,4.16
2019-02-05T17:54:16.436Z,4.21
2019-02-05T17:56:47.093Z,4.20
2019-02-05T17:59:16.802Z,4.24
2019-02-05T18:01:46.176Z,4.22
2019-02-05T18:04:17.111Z,4.21
2019-02-05T18:06:47.131Z,4.22
2019-02-05T18:09:16.730Z,4.14
2019-02-05T18:11:46.147Z,4.05
2019-02-05T18:14:16.631Z,4.05
2019-02-05T18:16:46.273Z,4.13
2019-02-05T18:19:15.922Z,4.14
2019-02-05T18:21:46.474Z,4.09
2019-02-05T18:24:16.428Z,4.10
2019-02-05T18:26:46.038Z,4.10
2019-02-05T18:29:15.754Z,4.07
2019-02-05T18:31:45.021Z,4.10
2019-02-05T18:34:15.109Z,4.13
2019-02-05T18:36:44.560Z,4.09
2019-02-05T18:39:13.790Z,4.09
2019-02-05T18:41:43.054Z,4.21
2019-02-05T18:44:12.729Z,4.19
2019-02-05T18:46:42.433Z,4.14
2019-02-05T18:49:11.734Z,4.18
2019-02-05T18:51:41.620Z,4.17
2019-02-05T18:54:10.960Z,4.19
2019-02-05T18:56:40.810Z,4.22
2019-02-05T18:59:10.422Z,4.29
2019-02-05T19:01:39.632Z,4.28
2019-02-05T19:04:09.204Z,4.27
2019-02-05T19:06:38.505Z,4.34
2019-02-05T19:09:13.840Z,4.35
2019-02-05T19:11:43.784Z,4.37
2019-02-05T19:14:14.091Z,4.40
2019-02-05T19:16:43.699Z,4.35
2019-02-05T19:19:15.311Z,4.32
2019-02-05T19:21:45.254Z,4.25
2019-02-05T19:24:49.236Z,4.20
2019-02-05T19:27:19.148Z,4.19
2019-02-05T19:29:48.754Z,4.31
2019-02-05T19:32:21.617Z,4.35
2019-02-05T19:34:50.855Z,4.32
2019-02-05T19:37:20.588Z,4.38
2019-02-05T19:39:50.493Z,4.41
2019-02-05T19:42:19.772Z,4.31
2019-02-05T19:44:58.906Z,4.24
2019-02-05T19:47:32.209Z,4.23
2019-02-05T19:50:02.874Z,4.23
2019-02-05T19:52:33.386Z,4.30
2019-02-05T19:55:02.625Z,4.42
2019-02-05T19:57:32.167Z,4.37
2019-02-05T20:00:02.077Z,4.33
2019-02-05T20:02:31.698Z,4.39
2019-02-05T20:05:01.767Z,4.37
2019-02-05T20:07:31.420Z,4.42
2019-02-05T20:10:00.946Z,4.33
2019-02-05T20:12:30.408Z,4.33
2019-02-05T20:15:02.801Z,4.29
2019-02-05T20:17:32.112Z,4.29
2019-02-05T20:20:01.412Z,4.27
2019-02-05T20:22:31.229Z,4.26
2019-02-05T20:25:02.145Z,4.26
2019-02-05T20:27:32.210Z,4.27
2019-02-05T20:30:02.839Z,4.25
2019-02-05T20:32:32.678Z,4.22
2019-02-05T20:35:02.745Z,4.24
2019-02-05T20:37:32.868Z,4.23
2019-02-05T20:40:02.375Z,4.21
2019-02-05T20:42:32.195Z,4.26
2019-02-05T20:45:01.469Z,4.30
2019-02-05T20:47:31.298Z,4.25
2019-02-05T20:50:01.089Z,4.24
2019-02-05T20:52:30.925Z,4.22
2019-02-05T20:55:00.855Z,4.17
2019-02-05T20:57:30.844Z,4.18
2019-02-05T21:00:00.580Z,4.17
2019-02-05T21:02:32.033Z,4.17
2019-02-05T21:05:01.748Z,4.12
2019-02-05T21:07:30.928Z,4.16
2019-02-05T21:10:01.030Z,4.09
2019-02-05T21:12:30.571Z,4.19
2019-02-05T21:14:59.844Z,4.13
2019-02-05T21:17:29.093Z,4.13
2019-02-05T21:19:59.221Z,4.20
2019-02-05T21:22:28.679Z,4.20
2019-02-05T21:24:58.284Z,4.21
2019-02-05T21:27:28.985Z,4.25
2019-02-05T21:30:00.350Z,4.19
2019-02-05T21:32:30.068Z,4.19
2019-02-05T21:34:59.386Z,4.05
2019-02-05T21:37:28.695Z,4.02
2019-02-05T21:40:02.526Z,3.95
2019-02-05T21:42:29.586Z,3.93
2019-02-05T21:44:58.837Z,4.00
2019-02-05T21:47:28.659Z,4.00
2019-02-05T21:49:58.848Z,4.00
2019-02-05T21:52:28.054Z,4.01
2019-02-05T21:54:57.290Z,4.08
2019-02-05T21:57:26.932Z,4.08
2019-02-05T21:59:57.012Z,4.09
2019-02-05T22:02:26.197Z,4.06
2019-02-05T22:04:55.637Z,4.08
2019-02-05T22:07:24.873Z,4.11
2019-02-05T22:09:54.749Z,4.05
2019-02-05T22:12:23.940Z,4.03
2019-02-05T22:14:53.460Z,4.03
2019-02-05T22:17:23.308Z,4.13
2019-02-05T22:19:52.474Z,4.04
2019-02-05T22:22:22.018Z,4.11
2019-02-05T22:24:51.198Z,4.13
2019-02-05T22:27:22.223Z,4.09
2019-02-05T22:29:51.358Z,4.14
2019-02-05T22:32:20.601Z,4.17
2019-02-05T22:34:50.104Z,4.20
2019-02-05T22:37:19.358Z,4.19
2019-02-05T22:39:48.642Z,4.13
2019-02-05T22:42:18.044Z,4.11
2019-02-05T22:44:47.613Z,4.13
2019-02-05T22:47:16.836Z,4.17
2019-02-05T22:49:46.737Z,4.17
2019-02-05T22:52:16.010Z,4.14
2019-02-05T22:54:45.252Z,4.16
2019-02-05T22:57:14.506Z,4.14
2019-02-05T22:59:44.247Z,4.19
2019-02-05T23:02:13.954Z,4.17
2019-02-05T23:05:10.996Z,4.16
2019-02-05T23:07:40.310Z,4.07
2019-02-05T23:11:03.762Z,4.04
2019-02-05T23:13:28.816Z,4.06
2019-02-05T23:15:58.430Z,4.04
2019-02-05T23:18:27.735Z,4.16
2019-02-05T23:20:56.929Z,4.20
2019-02-05T23:23:26.106Z,4.16
2019-02-05T23:25:55.712Z,4.10
2019-02-05T23:28:25.516Z,4.13
2019-02-05T23:30:55.288Z,4.15
2019-02-05T23:33:24.544Z,4.22
2019-02-05T23:35:53.752Z,4.16
2019-02-05T23:38:29.448Z,4.14
2019-02-05T23:40:54.285Z,4.11
2019-02-05T23:43:24.102Z,4.04
2019-02-05T23:46:01.305Z,4.10
2019-02-05T23:48:24.601Z,3.98
2019-02-05T23:50:53.945Z,3.95
2019-02-05T23:53:23.512Z,3.93
2019-02-05T23:55:52.690Z,3.92
2019-02-05T23:58:22.872Z,3.91
